Terminal Aerodrome Forecast
Issued by NWS

Home | Current Version | Previous Version | Text Only | Print | Product List | Glossary On
Versions: 1 2 3 4 5 6 7 8 9 10 11 12 13 14
905
FTUS44 KTSA 232320
TAFXNA
TAF
KXNA 232320Z 2400/2424 16003KT P6SM SKC
     FM241500 18016G22KT P6SM FEW250
     FM241700 20017G27KT P6SM FEW250=

USA.gov is the U.S. government's official web portal to all federal, state and local government web resources and services.